メインページ
METAR-TAF:

METAR-TAF

空港 :

フェアバンクス, アラスカ州, アメリカ合衆国

フェアバンクス国際空港

緯度: 64-48-14N, 経度: 147-52-34W, 海抜: 132m

現時点の気象観測

当レポートは1時間11分前の20:53(UTC)に作成
北東の風 3kt
気温 -4°C
湿度 86%
気圧 1028 hPa
視程: 8.0km
高度600ftの千切れ雲あり
高度1100ftの千切れ雲あり
高度2000ftの曇り

METAR: PAFA 192053Z 04003KT 5SM BR BKN006 BKN011 OVC020 M04/M06 A3037 RMK AO2 SLP294 T10391056 58008 $

時間: 13:04 (22:04 UTC)

予報

当レポートは1時間51分前の20:13(UTC)に作成
予報は19日の 20時(UTC)から 20日の 24時(UTC)まで有効
の風 kt
視程: 9.7km
高度700ftの千切れ雲あり
高度1300ftの千切れ雲あり
高度2400ftの曇り
19日の 2100時(UTC)から
変向風 3kt
視程: 10km
高度1500ftの雲は散在している
高度2500ftの曇り
20日の 1400時(UTC)から
西/南西の風 8kt
視程: 3.2km
高度2000ftの曇り
小雪
20日の 1600時(UTC)から
西/北西の風 10kt
視程: 0.8km
高度700ftの曇り
雪, 霧
20日の 2100時(UTC)から
南/南西の風 11kt
視程: 10km
高度1500ftの千切れ雲あり

TAF: PAFA 192013Z 1920/2024 00000KT 6SM BR BKN007 BKN013 OVC024 FM192100 VRB03KT P6SM SCT015 OVC025 FM201400 25008KT 2SM -SN OVC020 FM201600 29010KT 1/2SM SN FG OVC007 FM202100 20011KT P6SM BKN015

4,000以上の空港の気象観測と天気予報(METAR報とTAF報)

利用可能な観測所は地図上に黄色い丸と赤い丸で示す。

丸の上にカーソルを重ねると観測所名を参照できる。

次にクリックすると気象観測と天気予報を参照できる。

マップの切り替え:黒色「×」印の緑ボタンをクリックして拡大、「-」印の緑ボタンをクリックして縮小、緑色の三角印をクリックして隣りの地図に切り替え


METAR-TAF: